createdAt,value
2023-04-19T00:02:29.273Z,5.97
2023-04-19T00:05:34.626Z,6.63
2023-04-19T00:08:38.168Z,5.03
2023-04-19T00:11:42.214Z,5.50
2023-04-19T00:14:45.804Z,5.73
2023-04-19T00:17:49.575Z,5.13
2023-04-19T00:20:54.669Z,5.13
2023-04-19T00:23:58.152Z,6.93
2023-04-19T00:27:02.544Z,5.33
2023-04-19T00:30:07.456Z,6.17
2023-04-19T00:33:13.288Z,6.43
2023-04-19T00:36:18.478Z,7.57
2023-04-19T00:39:23.704Z,5.60
2023-04-19T00:42:27.239Z,5.93
2023-04-19T00:45:30.829Z,7.20
2023-04-19T00:48:36.364Z,6.47
2023-04-19T00:51:41.359Z,7.60
2023-04-19T00:54:45.077Z,5.67
2023-04-19T00:57:52.309Z,5.30
2023-04-19T01:00:55.983Z,6.10
2023-04-19T01:03:59.961Z,5.77
2023-04-19T01:07:05.046Z,4.97
2023-04-19T01:10:09.039Z,5.67
2023-04-19T01:13:12.634Z,6.17
2023-04-19T01:16:16.304Z,5.47
2023-04-19T01:19:19.900Z,5.40
2023-04-19T01:22:24.934Z,6.00
2023-04-19T01:25:28.708Z,5.47
2023-04-19T01:28:32.423Z,3.93
2023-04-19T01:31:36.212Z,3.80
2023-04-19T01:34:40.913Z,3.53
2023-04-19T01:37:45.801Z,2.80
2023-04-19T01:40:49.275Z,2.77
2023-04-19T01:43:52.855Z,2.50
2023-04-19T01:46:56.573Z,3.20
2023-04-19T01:50:00.249Z,3.00
2023-04-19T01:53:05.290Z,2.63
2023-04-19T01:56:09.495Z,2.83
2023-04-19T01:59:14.004Z,2.23
2023-04-19T02:02:17.654Z,3.37
2023-04-19T02:05:21.249Z,3.03
2023-04-19T02:08:26.371Z,2.40
2023-04-19T02:11:30.044Z,1.60
2023-04-19T02:14:33.648Z,2.00
2023-04-19T02:17:37.403Z,2.37
2023-04-19T02:20:40.993Z,3.03
2023-04-19T02:23:45.938Z,1.80
2023-04-19T02:26:49.563Z,2.67
2023-04-19T02:29:52.987Z,1.70
2023-04-19T02:32:56.761Z,1.60
2023-04-19T02:36:00.300Z,2.13
2023-04-19T02:39:05.830Z,1.83
2023-04-19T02:42:09.427Z,1.57
2023-04-19T02:45:13.209Z,1.77
2023-04-19T02:48:16.780Z,2.23
2023-04-19T02:51:20.456Z,1.53
2023-04-19T02:54:25.656Z,1.80
2023-04-19T02:57:29.778Z,2.97
2023-04-19T03:00:33.374Z,2.60
2023-04-19T03:03:43.488Z,1.70
2023-04-19T03:06:47.285Z,2.27
2023-04-19T03:09:52.495Z,2.13
2023-04-19T03:12:56.866Z,2.10
2023-04-19T03:16:00.743Z,2.07
2023-04-19T03:19:06.064Z,2.80
2023-04-19T03:22:15.287Z,4.30
2023-04-19T03:25:21.213Z,3.17
2023-04-19T03:28:32.231Z,2.90
2023-04-19T03:31:53.178Z,3.00
2023-04-19T03:34:56.803Z,2.53
2023-04-19T03:38:00.591Z,2.97
2023-04-19T03:41:05.718Z,5.47
2023-04-19T03:44:13.975Z,2.00
2023-04-19T03:47:20.600Z,5.47
2023-04-19T03:50:26.435Z,2.33
2023-04-19T03:53:32.599Z,5.37
2023-04-19T03:56:38.360Z,1.90
2023-04-19T03:59:42.738Z,2.00
2023-04-19T04:02:47.495Z,2.83
2023-04-19T04:05:51.512Z,1.83
2023-04-19T04:08:55.284Z,1.50
2023-04-19T04:12:00.511Z,1.23
2023-04-19T04:15:04.406Z,1.40
2023-04-19T04:18:11.128Z,1.40
2023-04-19T04:21:15.163Z,1.50
2023-04-19T04:24:23.599Z,1.97
2023-04-19T04:28:04.218Z,1.60
2023-04-19T04:31:08.306Z,1.67
2023-04-19T04:34:12.825Z,3.23
2023-04-19T04:37:26.101Z,1.87
2023-04-19T04:40:30.031Z,2.40
2023-04-19T04:43:35.689Z,2.37
2023-04-19T04:46:39.472Z,1.83
2023-04-19T04:49:43.591Z,1.43
2023-04-19T04:52:47.416Z,3.93
2023-04-19T04:55:59.183Z,3.17
2023-04-19T04:59:04.565Z,2.40
2023-04-19T05:02:14.339Z,3.07
2023-04-19T05:05:18.356Z,2.30
2023-04-19T05:08:22.129Z,1.87
2023-04-19T05:11:26.196Z,2.80
2023-04-19T05:14:32.286Z,1.90
2023-04-19T05:17:36.414Z,2.03
2023-04-19T05:20:40.423Z,3.67
2023-04-19T05:23:54.749Z,3.27
2023-04-19T05:26:59.906Z,7.40
2023-04-19T05:30:05.535Z,3.70
2023-04-19T05:33:10.825Z,1.87
2023-04-19T05:36:15.616Z,3.00
2023-04-19T05:39:19.459Z,2.13
2023-04-19T05:42:23.179Z,1.87
2023-04-19T05:45:28.426Z,3.47
2023-04-19T05:48:32.157Z,1.87
2023-04-19T05:51:58.620Z,2.57
2023-04-19T05:55:23.883Z,3.03
2023-04-19T05:58:27.944Z,2.27
2023-04-19T06:01:33.765Z,4.00
2023-04-19T06:04:37.901Z,2.60
2023-04-19T06:07:47.224Z,2.23
2023-04-19T06:11:02.226Z,2.37
2023-04-19T06:14:12.624Z,2.70
2023-04-19T06:17:23.584Z,2.33
2023-04-19T06:20:27.369Z,2.10
2023-04-19T06:23:30.991Z,2.93
2023-04-19T06:26:34.809Z,3.17
2023-04-19T06:29:38.592Z,2.53
2023-04-19T06:32:43.976Z,3.57
2023-04-19T06:35:47.648Z,5.50
2023-04-19T06:38:51.403Z,3.40
2023-04-19T06:41:55.044Z,2.07
2023-04-19T06:44:59.392Z,5.33
2023-04-19T06:48:04.870Z,4.87
2023-04-19T06:51:08.654Z,4.63
2023-04-19T06:54:12.329Z,3.97
2023-04-19T06:57:16.039Z,4.03
2023-04-19T07:00:20.423Z,11.30
2023-04-19T07:03:25.801Z,4.33
2023-04-19T07:06:29.921Z,3.83
2023-04-19T07:09:33.544Z,4.63
2023-04-19T07:12:37.218Z,5.97
2023-04-19T07:15:41.025Z,2.30
2023-04-19T07:18:46.253Z,3.73
2023-04-19T07:21:50.159Z,6.00
2023-04-19T07:24:54.127Z,3.27
2023-04-19T07:27:57.908Z,1.83
2023-04-19T07:31:01.918Z,3.87
2023-04-19T07:34:06.983Z,5.80
2023-04-19T07:37:10.871Z,6.03
2023-04-19T07:40:15.201Z,5.53
2023-04-19T07:43:18.949Z,4.93
2023-04-19T07:46:22.667Z,3.93
2023-04-19T07:49:27.856Z,4.57
2023-04-19T07:52:31.542Z,3.47
2023-04-19T07:55:35.533Z,6.97
2023-04-19T07:58:41.753Z,3.73
2023-04-19T08:01:45.777Z,6.23
2023-04-19T08:04:52.339Z,2.93
2023-04-19T08:07:57.075Z,2.47
2023-04-19T08:11:02.488Z,5.37
2023-04-19T08:14:26.829Z,3.33
2023-04-19T08:17:37.074Z,3.00
2023-04-19T08:20:47.703Z,2.27
2023-04-19T08:23:54.164Z,2.67
2023-04-19T08:26:59.966Z,4.53
2023-04-19T08:30:04.799Z,3.40
2023-04-19T08:33:08.682Z,2.07
2023-04-19T08:36:16.977Z,3.20
2023-04-19T08:39:32.479Z,1.90
2023-04-19T08:42:37.575Z,2.90
2023-04-19T08:45:41.794Z,5.73
2023-04-19T08:48:46.773Z,3.57
2023-04-19T08:51:52.908Z,2.07
2023-04-19T08:54:57.442Z,4.20
2023-04-19T08:58:04.118Z,5.10
2023-04-19T09:01:17.058Z,2.10
2023-04-19T09:04:36.835Z,5.00
2023-04-19T09:07:43.676Z,5.20
2023-04-19T09:10:55.276Z,3.97
2023-04-19T09:14:09.819Z,3.87
2023-04-19T09:17:17.887Z,2.57
2023-04-19T09:20:38.407Z,2.83
2023-04-19T09:23:49.010Z,3.57
2023-04-19T09:26:58.134Z,3.30
2023-04-19T09:30:03.647Z,3.73
2023-04-19T09:33:07.708Z,4.33
2023-04-19T09:36:13.705Z,4.13
2023-04-19T09:39:30.186Z,4.97
2023-04-19T09:45:53.618Z,4.23
2023-04-19T09:48:58.804Z,3.90
2023-04-19T09:52:05.321Z,3.13
2023-04-19T09:55:22.180Z,2.72
2023-04-19T09:58:38.269Z,3.60
2023-04-19T10:01:56.606Z,3.97
2023-04-19T10:05:16.313Z,2.60
2023-04-19T10:08:24.034Z,3.13
2023-04-19T10:11:37.242Z,2.28
2023-04-19T10:14:42.070Z,2.85
2023-04-19T10:17:45.881Z,2.30
2023-04-19T10:20:54.617Z,5.40
2023-04-19T10:23:59.139Z,2.35
2023-04-19T10:27:14.944Z,1.88
2023-04-19T10:30:20.658Z,2.88
2023-04-19T10:33:29.391Z,3.80
2023-04-19T10:36:33.969Z,3.47
2023-04-19T10:39:45.295Z,3.70
2023-04-19T10:43:20.608Z,2.53
2023-04-19T10:46:40.222Z,6.63
2023-04-19T10:49:47.651Z,2.50
2023-04-19T10:52:51.335Z,3.33
2023-04-19T10:55:55.003Z,1.98
2023-04-19T10:59:26.099Z,2.78
2023-04-19T11:02:31.132Z,2.17
2023-04-19T11:06:27.502Z,2.03
2023-04-19T11:09:34.793Z,1.73
2023-04-19T11:12:38.789Z,1.85
2023-04-19T11:15:46.144Z,1.33
2023-04-19T11:18:50.274Z,2.50
2023-04-19T11:21:53.917Z,3.08
2023-04-19T11:24:57.717Z,1.60
2023-04-19T11:28:02.124Z,1.38
2023-04-19T11:31:07.698Z,1.85
2023-04-19T11:34:11.385Z,4.80
2023-04-19T11:37:15.059Z,1.33
2023-04-19T11:40:20.444Z,2.60
2023-04-19T11:43:24.160Z,2.05
2023-04-19T11:46:29.396Z,3.70
2023-04-19T11:49:34.503Z,6.88
2023-04-19T11:52:38.288Z,2.40
2023-04-19T11:55:44.749Z,1.67
2023-04-19T11:58:49.393Z,2.40
2023-04-19T12:01:54.579Z,4.28
2023-04-19T12:05:08.673Z,2.65
2023-04-19T12:08:12.381Z,2.42
2023-04-19T12:11:17.029Z,4.22
2023-04-19T12:14:23.143Z,4.57
2023-04-19T12:17:28.781Z,2.03
2023-04-19T12:20:36.817Z,2.33
2023-04-19T12:23:40.682Z,3.50
2023-04-19T12:26:56.245Z,4.37
2023-04-19T12:30:00.217Z,3.63
2023-04-19T12:33:06.245Z,2.60
2023-04-19T12:36:10.706Z,3.97
2023-04-19T12:39:14.752Z,6.57
2023-04-19T12:42:18.604Z,6.47
2023-04-19T12:45:22.656Z,6.93
2023-04-19T12:48:27.902Z,9.63
2023-04-19T12:51:32.035Z,4.57
2023-04-19T12:54:36.046Z,6.87
2023-04-19T12:57:39.732Z,3.43
2023-04-19T13:00:43.495Z,5.17
2023-04-19T13:03:48.833Z,2.77
2023-04-19T13:06:52.714Z,3.53
2023-04-19T13:09:57.088Z,2.03
2023-04-19T13:13:00.922Z,2.73
2023-04-19T13:16:04.674Z,2.90
2023-04-19T13:19:09.887Z,3.47
2023-04-19T13:22:13.593Z,4.37
2023-04-19T13:25:17.397Z,3.53
2023-04-19T13:28:21.103Z,5.37
2023-04-19T13:31:24.848Z,6.03
2023-04-19T13:34:30.396Z,5.37
2023-04-19T13:37:34.154Z,8.40
2023-04-19T13:40:37.800Z,4.37
2023-04-19T13:43:41.538Z,2.90
2023-04-19T13:46:45.341Z,3.43
2023-04-19T13:49:52.457Z,2.00
2023-04-19T13:52:56.347Z,2.83
2023-04-19T13:56:00.154Z,2.27
2023-04-19T13:59:04.077Z,2.90
2023-04-19T14:02:07.949Z,3.07
2023-04-19T14:05:13.206Z,2.83
2023-04-19T14:08:16.979Z,3.37
2023-04-19T14:11:21.087Z,4.40
2023-04-19T14:14:24.858Z,4.43
2023-04-19T14:17:28.502Z,5.10
2023-04-19T14:20:33.676Z,9.57
2023-04-19T14:23:37.389Z,7.20
2023-04-19T14:26:41.187Z,2.73
2023-04-19T14:29:44.841Z,3.67
2023-04-19T14:32:48.789Z,3.13
2023-04-19T14:35:53.897Z,4.43
2023-04-19T14:38:57.562Z,5.13
2023-04-19T14:42:01.316Z,5.73
2023-04-19T14:45:05.318Z,5.50
2023-04-19T14:48:09.036Z,4.67
2023-04-19T14:51:14.262Z,4.13
2023-04-19T14:54:18.019Z,5.63
2023-04-19T14:57:21.752Z,4.93
2023-04-19T15:00:25.526Z,4.20
2023-04-19T15:03:29.308Z,4.17
2023-04-19T15:06:34.703Z,4.47
2023-04-19T15:09:38.445Z,4.60
2023-04-19T15:12:42.341Z,3.90
2023-04-19T15:15:45.957Z,5.07
2023-04-19T15:18:49.810Z,3.10
2023-04-19T15:21:54.896Z,4.23
2023-04-19T15:24:58.525Z,3.63
2023-04-19T15:28:02.265Z,4.20
2023-04-19T15:31:07.956Z,4.20
2023-04-19T15:34:11.761Z,3.20
2023-04-19T15:37:16.945Z,4.20
2023-04-19T15:40:21.518Z,8.83
2023-04-19T15:43:27.701Z,5.70
2023-04-19T15:46:31.433Z,5.70
2023-04-19T15:49:35.255Z,5.03
2023-04-19T15:52:40.319Z,6.27
2023-04-19T15:55:44.488Z,5.90
2023-04-19T15:58:48.169Z,11.30
2023-04-19T16:01:52.028Z,8.50
2023-04-19T16:04:55.989Z,5.57
2023-04-19T16:08:05.932Z,5.03
2023-04-19T16:11:09.815Z,12.07
2023-04-19T16:14:13.490Z,13.23
2023-04-19T16:17:17.229Z,8.57
2023-04-19T16:20:21.843Z,7.20
2023-04-19T16:23:27.256Z,6.27
2023-04-19T16:26:30.939Z,6.03
2023-04-19T16:29:34.956Z,6.17
2023-04-19T16:32:38.752Z,6.77
2023-04-19T16:35:42.380Z,9.50
2023-04-19T16:38:47.494Z,10.60
2023-04-19T16:41:51.169Z,7.70
2023-04-19T16:44:54.904Z,8.40
2023-04-19T16:47:58.641Z,8.33
2023-04-19T16:51:02.430Z,6.73
2023-04-19T16:54:07.764Z,5.87
2023-04-19T16:57:11.863Z,9.13
2023-04-19T17:00:16.530Z,6.27
2023-04-19T17:03:20.556Z,6.33
2023-04-19T17:06:24.341Z,7.60
2023-04-19T17:09:29.905Z,6.33
2023-04-19T17:12:33.520Z,6.97
2023-04-19T17:15:39.107Z,9.90
2023-04-19T17:18:42.874Z,8.30
2023-04-19T17:21:46.536Z,8.73
2023-04-19T17:24:51.766Z,6.63
2023-04-19T17:27:55.457Z,6.87
2023-04-19T17:30:59.198Z,8.93
2023-04-19T17:34:02.949Z,7.17
2023-04-19T17:37:06.668Z,10.43
2023-04-19T17:40:12.996Z,14.40
2023-04-19T17:43:16.706Z,12.73
2023-04-19T17:46:21.071Z,10.17
2023-04-19T17:49:26.777Z,16.00
2023-04-19T17:52:30.491Z,16.30
2023-04-19T17:55:35.857Z,14.13
2023-04-19T17:58:39.654Z,12.23
2023-04-19T18:01:43.407Z,10.37
2023-04-19T18:04:47.395Z,12.37
2023-04-19T18:07:51.507Z,12.67
2023-04-19T18:10:56.655Z,10.70
2023-04-19T18:14:00.384Z,7.90
2023-04-19T18:17:05.817Z,12.57
2023-04-19T18:20:12.451Z,12.70
2023-04-19T18:23:17.314Z,11.43
2023-04-19T18:26:22.790Z,8.67
2023-04-19T18:29:26.464Z,12.07
2023-04-19T18:32:32.077Z,11.50
2023-04-19T18:35:36.854Z,9.67
2023-04-19T18:38:40.843Z,7.47
2023-04-19T18:41:46.012Z,8.40
2023-04-19T18:44:54.301Z,7.83
2023-04-19T18:47:58.559Z,9.87
2023-04-19T18:51:02.454Z,12.20
2023-04-19T18:54:06.362Z,17.53
2023-04-19T18:57:23.109Z,16.50
2023-04-19T19:00:28.061Z,11.60
2023-04-19T19:03:56.788Z,10.23
2023-04-19T19:06:56.875Z,15.10
2023-04-19T19:10:10.741Z,12.40
2023-04-19T19:13:23.117Z,11.23
2023-04-19T19:16:27.485Z,14.43
2023-04-19T19:19:31.459Z,14.03
2023-04-19T19:22:35.277Z,12.83
2023-04-19T19:25:39.010Z,9.63
2023-04-19T19:28:44.015Z,11.00
2023-04-19T19:31:47.780Z,14.70
2023-04-19T19:34:56.284Z,10.00
2023-04-19T19:38:04.769Z,11.50
2023-04-19T19:41:49.528Z,7.90
2023-04-19T19:44:33.815Z,12.93
2023-04-19T19:47:43.411Z,11.03
2023-04-19T19:51:17.321Z,9.50
2023-04-19T19:54:12.881Z,12.27
2023-04-19T20:00:42.881Z,17.67
2023-04-19T20:03:49.241Z,13.33
2023-04-19T20:09:59.700Z,10.33
2023-04-19T20:13:03.670Z,15.23
2023-04-19T20:16:10.224Z,10.17
2023-04-19T20:19:14.832Z,11.13
2023-04-19T20:22:18.584Z,13.07
2023-04-19T20:25:22.254Z,16.13
2023-04-19T20:28:26.763Z,15.60
2023-04-19T20:31:32.137Z,19.87
2023-04-19T20:34:35.844Z,17.40
2023-04-19T20:37:41.145Z,21.43
2023-04-19T20:40:44.866Z,21.97
2023-04-19T20:43:48.616Z,21.40
2023-04-19T20:46:53.957Z,17.50
2023-04-19T20:49:57.689Z,15.70
2023-04-19T20:53:01.602Z,12.53
2023-04-19T20:56:05.497Z,17.87
2023-04-19T20:59:09.176Z,13.00
2023-04-19T21:02:14.365Z,13.77
2023-04-19T21:05:18.023Z,13.87
2023-04-19T21:08:21.744Z,14.70
2023-04-19T21:11:25.690Z,15.63
2023-04-19T21:14:30.395Z,11.90
2023-04-19T21:17:35.721Z,10.97
2023-04-19T21:20:39.743Z,13.87
2023-04-19T21:23:43.527Z,11.07
2023-04-19T21:26:47.356Z,9.77
2023-04-19T21:29:51.114Z,10.77
2023-04-19T21:32:56.327Z,13.40
2023-04-19T21:36:00.168Z,12.87
2023-04-19T21:39:04.332Z,28.77
2023-04-19T21:42:08.239Z,19.63
2023-04-19T21:45:12.952Z,18.07
2023-04-19T21:48:18.169Z,19.13
2023-04-19T21:51:21.872Z,12.80
2023-04-19T21:54:33.452Z,12.17
2023-04-19T21:57:38.589Z,14.30
2023-04-19T22:00:42.455Z,13.60
2023-04-19T22:03:47.837Z,23.43
2023-04-19T22:06:51.775Z,21.73
2023-04-19T22:09:57.150Z,20.67
2023-04-19T22:13:02.602Z,18.07
2023-04-19T22:16:07.346Z,14.83
2023-04-19T22:19:12.885Z,12.00
2023-04-19T22:22:17.146Z,11.50
2023-04-19T22:25:21.135Z,7.90
2023-04-19T22:28:25.249Z,10.60
2023-04-19T22:31:29.020Z,10.43
2023-04-19T22:34:34.237Z,11.90
2023-04-19T22:37:38.021Z,11.67
2023-04-19T22:40:46.497Z,11.53
2023-04-19T22:43:58.821Z,12.53
2023-04-19T22:47:08.383Z,9.83
2023-04-19T22:50:23.751Z,10.43
2023-04-19T22:53:29.764Z,13.10
2023-04-19T22:56:33.795Z,12.13
2023-04-19T22:59:41.827Z,12.57
2023-04-19T23:03:00.779Z,13.33
2023-04-19T23:06:17.338Z,13.27
2023-04-19T23:09:29.879Z,12.70
2023-04-19T23:12:33.770Z,11.40
2023-04-19T23:15:37.714Z,11.97
2023-04-19T23:18:41.662Z,12.60
2023-04-19T23:21:46.807Z,10.30
2023-04-19T23:24:50.513Z,9.50
2023-04-19T23:27:54.195Z,10.00
2023-04-19T23:30:57.997Z,11.50
2023-04-19T23:34:01.730Z,9.43
2023-04-19T23:37:06.906Z,9.93
2023-04-19T23:40:11.637Z,9.27
2023-04-19T23:43:15.409Z,10.17
2023-04-19T23:46:19.106Z,9.07
2023-04-19T23:49:22.961Z,10.87
2023-04-19T23:52:27.972Z,9.63
2023-04-19T23:55:31.605Z,10.70
2023-04-19T23:58:35.315Z,10.77
